sensor_id;sensor_type;location;lat;lon;timestamp;temperature;humidity
49222;DHT22;35047;37.588;-122.048;2023-05-16T00:02:18;32.30;48.00
49222;DHT22;35047;37.588;-122.048;2023-05-16T00:04:46;32.30;47.90
49222;DHT22;35047;37.588;-122.048;2023-05-16T00:07:13;32.30;47.60
49222;DHT22;35047;37.588;-122.048;2023-05-16T00:09:39;32.30;47.70
49222;DHT22;35047;37.588;-122.048;2023-05-16T00:12:06;32.30;47.70
49222;DHT22;35047;37.588;-122.048;2023-05-16T00:14:33;32.30;47.30
49222;DHT22;35047;37.588;-122.048;2023-05-16T00:17:01;32.30;47.30
49222;DHT22;35047;37.588;-122.048;2023-05-16T00:19:29;32.30;47.70
49222;DHT22;35047;37.588;-122.048;2023-05-16T00:21:56;32.30;47.90
49222;DHT22;35047;37.588;-122.048;2023-05-16T00:24:22;32.30;47.70
49222;DHT22;35047;37.588;-122.048;2023-05-16T00:26:49;32.30;47.50
49222;DHT22;35047;37.588;-122.048;2023-05-16T00:29:15;32.30;47.40
49222;DHT22;35047;37.588;-122.048;2023-05-16T00:31:42;32.30;47.40
49222;DHT22;35047;37.588;-122.048;2023-05-16T00:34:09;32.30;47.60
49222;DHT22;35047;37.588;-122.048;2023-05-16T00:36:35;32.30;47.90
49222;DHT22;35047;37.588;-122.048;2023-05-16T00:39:02;32.20;47.90
49222;DHT22;35047;37.588;-122.048;2023-05-16T00:41:29;32.10;47.50
49222;DHT22;35047;37.588;-122.048;2023-05-16T00:43:55;31.80;47.50
49222;DHT22;35047;37.588;-122.048;2023-05-16T00:46:22;31.60;47.80
49222;DHT22;35047;37.588;-122.048;2023-05-16T00:48:48;31.40;48.30
49222;DHT22;35047;37.588;-122.048;2023-05-16T00:51:18;31.30;48.60
49222;DHT22;35047;37.588;-122.048;2023-05-16T00:53:45;31.00;49.00
49222;DHT22;35047;37.588;-122.048;2023-05-16T00:56:12;30.90;49.30
49222;DHT22;35047;37.588;-122.048;2023-05-16T00:58:39;30.90;49.50
49222;DHT22;35047;37.588;-122.048;2023-05-16T01:01:06;30.80;49.00
49222;DHT22;35047;37.588;-122.048;2023-05-16T01:03:33;30.90;49.30
49222;DHT22;35047;37.588;-122.048;2023-05-16T01:06:00;30.80;49.40
49222;DHT22;35047;37.588;-122.048;2023-05-16T01:08:27;30.80;49.30
49222;DHT22;35047;37.588;-122.048;2023-05-16T01:11:27;30.70;49.60
49222;DHT22;35047;37.588;-122.048;2023-05-16T01:22:51;30.60;50.00
49222;DHT22;35047;37.588;-122.048;2023-05-16T01:28:19;30.50;50.00
49222;DHT22;35047;37.588;-122.048;2023-05-16T01:30:46;30.50;50.60
49222;DHT22;35047;37.588;-122.048;2023-05-16T01:33:12;30.50;50.50
49222;DHT22;35047;37.588;-122.048;2023-05-16T01:35:55;30.40;50.40
49222;DHT22;35047;37.588;-122.048;2023-05-16T01:38:29;30.20;50.40
49222;DHT22;35047;37.588;-122.048;2023-05-16T01:43:52;29.50;51.20
49222;DHT22;35047;37.588;-122.048;2023-05-16T01:46:25;29.20;51.80
49222;DHT22;35047;37.588;-122.048;2023-05-16T01:49:01;28.90;51.90
49222;DHT22;35047;37.588;-122.048;2023-05-16T01:51:32;28.70;52.50
49222;DHT22;35047;37.588;-122.048;2023-05-16T01:54:05;28.50;53.00
49222;DHT22;35047;37.588;-122.048;2023-05-16T01:56:32;28.30;53.50
49222;DHT22;35047;37.588;-122.048;2023-05-16T01:59:00;28.20;53.70
49222;DHT22;35047;37.588;-122.048;2023-05-16T02:01:29;27.90;53.70
49222;DHT22;35047;37.588;-122.048;2023-05-16T02:03:57;27.70;54.10
49222;DHT22;35047;37.588;-122.048;2023-05-16T02:06:23;27.60;55.40
49222;DHT22;35047;37.588;-122.048;2023-05-16T02:08:51;27.40;54.80
49222;DHT22;35047;37.588;-122.048;2023-05-16T02:11:17;27.30;55.50
49222;DHT22;35047;37.588;-122.048;2023-05-16T02:13:44;27.20;55.50
49222;DHT22;35047;37.588;-122.048;2023-05-16T02:16:10;27.00;55.80
49222;DHT22;35047;37.588;-122.048;2023-05-16T02:18:38;26.90;56.40
49222;DHT22;35047;37.588;-122.048;2023-05-16T02:21:04;26.70;56.60
49222;DHT22;35047;37.588;-122.048;2023-05-16T02:23:31;26.70;57.20
49222;DHT22;35047;37.588;-122.048;2023-05-16T02:25:58;26.60;57.40
49222;DHT22;35047;37.588;-122.048;2023-05-16T02:28:25;26.30;57.50
49222;DHT22;35047;37.588;-122.048;2023-05-16T02:31:01;26.30;57.90
49222;DHT22;35047;37.588;-122.048;2023-05-16T02:33:28;26.20;57.90
49222;DHT22;35047;37.588;-122.048;2023-05-16T02:35:55;26.10;58.20
49222;DHT22;35047;37.588;-122.048;2023-05-16T02:38:21;26.00;58.30
49222;DHT22;35047;37.588;-122.048;2023-05-16T02:40:48;25.90;58.50
49222;DHT22;35047;37.588;-122.048;2023-05-16T02:43:15;25.80;58.60
49222;DHT22;35047;37.588;-122.048;2023-05-16T02:45:41;25.70;59.20
49222;DHT22;35047;37.588;-122.048;2023-05-16T02:48:08;25.60;59.80
49222;DHT22;35047;37.588;-122.048;2023-05-16T02:50:34;25.50;59.70
49222;DHT22;35047;37.588;-122.048;2023-05-16T02:53:01;25.30;59.50
49222;DHT22;35047;37.588;-122.048;2023-05-16T02:55:28;25.20;60.00
49222;DHT22;35047;37.588;-122.048;2023-05-16T02:57:54;25.00;60.40
49222;DHT22;35047;37.588;-122.048;2023-05-16T03:00:21;24.90;60.80
49222;DHT22;35047;37.588;-122.048;2023-05-16T03:02:48;24.70;61.00
49222;DHT22;35047;37.588;-122.048;2023-05-16T03:05:15;24.70;61.60
49222;DHT22;35047;37.588;-122.048;2023-05-16T03:07:41;24.60;61.60
49222;DHT22;35047;37.588;-122.048;2023-05-16T03:10:09;24.50;61.80
49222;DHT22;35047;37.588;-122.048;2023-05-16T03:12:36;24.40;61.90
49222;DHT22;35047;37.588;-122.048;2023-05-16T03:15:02;24.30;61.90
49222;DHT22;35047;37.588;-122.048;2023-05-16T03:17:29;24.10;62.30
49222;DHT22;35047;37.588;-122.048;2023-05-16T03:19:55;24.10;62.70
49222;DHT22;35047;37.588;-122.048;2023-05-16T03:22:22;24.00;62.80
49222;DHT22;35047;37.588;-122.048;2023-05-16T03:24:49;23.90;63.20
49222;DHT22;35047;37.588;-122.048;2023-05-16T03:27:15;23.90;63.50
49222;DHT22;35047;37.588;-122.048;2023-05-16T03:29:42;23.80;63.90
49222;DHT22;35047;37.588;-122.048;2023-05-16T03:32:09;23.80;64.30
49222;DHT22;35047;37.588;-122.048;2023-05-16T03:34:35;23.70;64.40
49222;DHT22;35047;37.588;-122.048;2023-05-16T03:37:02;23.60;64.40
49222;DHT22;35047;37.588;-122.048;2023-05-16T03:39:29;23.50;64.50
49222;DHT22;35047;37.588;-122.048;2023-05-16T03:41:55;23.40;64.50
49222;DHT22;35047;37.588;-122.048;2023-05-16T03:44:23;23.40;64.70
49222;DHT22;35047;37.588;-122.048;2023-05-16T03:46:49;23.20;65.00
49222;DHT22;35047;37.588;-122.048;2023-05-16T03:49:17;23.20;65.30
49222;DHT22;35047;37.588;-122.048;2023-05-16T03:51:45;23.10;65.60
49222;DHT22;35047;37.588;-122.048;2023-05-16T03:54:12;23.10;65.70
49222;DHT22;35047;37.588;-122.048;2023-05-16T03:56:39;23.10;66.40
49222;DHT22;35047;37.588;-122.048;2023-05-16T03:59:05;23.00;66.60
49222;DHT22;35047;37.588;-122.048;2023-05-16T04:01:32;22.90;66.80
49222;DHT22;35047;37.588;-122.048;2023-05-16T04:03:59;22.80;66.90
49222;DHT22;35047;37.588;-122.048;2023-05-16T04:06:25;22.80;66.70
49222;DHT22;35047;37.588;-122.048;2023-05-16T04:08:52;22.70;66.90
49222;DHT22;35047;37.588;-122.048;2023-05-16T04:11:20;22.60;67.10
49222;DHT22;35047;37.588;-122.048;2023-05-16T04:13:46;22.60;67.30
49222;DHT22;35047;37.588;-122.048;2023-05-16T04:16:13;22.50;67.30
49222;DHT22;35047;37.588;-122.048;2023-05-16T04:18:39;22.40;67.30
49222;DHT22;35047;37.588;-122.048;2023-05-16T04:21:06;22.40;67.50
49222;DHT22;35047;37.588;-122.048;2023-05-16T04:23:35;22.30;67.60
49222;DHT22;35047;37.588;-122.048;2023-05-16T04:26:02;22.30;67.80
49222;DHT22;35047;37.588;-122.048;2023-05-16T04:28:30;22.20;67.80
49222;DHT22;35047;37.588;-122.048;2023-05-16T04:30:56;22.10;68.30
49222;DHT22;35047;37.588;-122.048;2023-05-16T04:33:23;22.10;68.40
49222;DHT22;35047;37.588;-122.048;2023-05-16T04:35:49;22.00;69.00
49222;DHT22;35047;37.588;-122.048;2023-05-16T04:38:18;22.00;69.30
49222;DHT22;35047;37.588;-122.048;2023-05-16T04:40:44;21.90;70.10
49222;DHT22;35047;37.588;-122.048;2023-05-16T04:43:10;21.90;70.00
49222;DHT22;35047;37.588;-122.048;2023-05-16T04:45:37;21.80;70.20
49222;DHT22;35047;37.588;-122.048;2023-05-16T04:48:03;21.80;70.20
49222;DHT22;35047;37.588;-122.048;2023-05-16T04:50:30;21.70;70.50
49222;DHT22;35047;37.588;-122.048;2023-05-16T04:52:57;21.60;70.70
49222;DHT22;35047;37.588;-122.048;2023-05-16T04:55:23;21.60;71.00
49222;DHT22;35047;37.588;-122.048;2023-05-16T04:57:50;21.50;71.00
49222;DHT22;35047;37.588;-122.048;2023-05-16T05:00:16;21.50;71.10
49222;DHT22;35047;37.588;-122.048;2023-05-16T05:02:43;21.40;71.40
49222;DHT22;35047;37.588;-122.048;2023-05-16T05:05:09;21.40;71.40
49222;DHT22;35047;37.588;-122.048;2023-05-16T05:07:36;21.40;71.40
49222;DHT22;35047;37.588;-122.048;2023-05-16T05:10:03;21.40;71.20
49222;DHT22;35047;37.588;-122.048;2023-05-16T05:12:32;21.40;71.10
49222;DHT22;35047;37.588;-122.048;2023-05-16T05:14:59;21.40;71.30
49222;DHT22;35047;37.588;-122.048;2023-05-16T05:17:25;21.30;71.10
49222;DHT22;35047;37.588;-122.048;2023-05-16T05:19:52;21.20;71.20
49222;DHT22;35047;37.588;-122.048;2023-05-16T05:22:18;21.20;71.70
49222;DHT22;35047;37.588;-122.048;2023-05-16T05:24:46;21.10;72.00
49222;DHT22;35047;37.588;-122.048;2023-05-16T05:27:12;21.10;71.80
49222;DHT22;35047;37.588;-122.048;2023-05-16T05:29:39;21.10;72.10
49222;DHT22;35047;37.588;-122.048;2023-05-16T05:32:06;21.10;71.70
49222;DHT22;35047;37.588;-122.048;2023-05-16T05:34:33;21.00;72.10
49222;DHT22;35047;37.588;-122.048;2023-05-16T05:36:59;21.00;72.10
49222;DHT22;35047;37.588;-122.048;2023-05-16T05:39:26;20.90;72.70
49222;DHT22;35047;37.588;-122.048;2023-05-16T05:41:52;20.90;72.90
49222;DHT22;35047;37.588;-122.048;2023-05-16T05:44:19;20.80;72.70
49222;DHT22;35047;37.588;-122.048;2023-05-16T05:46:46;20.90;72.90
49222;DHT22;35047;37.588;-122.048;2023-05-16T05:49:13;20.80;72.90
49222;DHT22;35047;37.588;-122.048;2023-05-16T05:51:40;20.70;73.20
49222;DHT22;35047;37.588;-122.048;2023-05-16T05:54:06;20.70;73.50
49222;DHT22;35047;37.588;-122.048;2023-05-16T05:56:33;20.70;73.40
49222;DHT22;35047;37.588;-122.048;2023-05-16T05:58:59;20.60;73.70
49222;DHT22;35047;37.588;-122.048;2023-05-16T06:01:26;20.70;74.50
49222;DHT22;35047;37.588;-122.048;2023-05-16T06:03:52;20.60;73.70
49222;DHT22;35047;37.588;-122.048;2023-05-16T06:06:19;20.60;73.80
49222;DHT22;35047;37.588;-122.048;2023-05-16T06:08:45;20.60;73.80
49222;DHT22;35047;37.588;-122.048;2023-05-16T06:11:12;20.50;73.90
49222;DHT22;35047;37.588;-122.048;2023-05-16T06:13:38;20.50;74.20
49222;DHT22;35047;37.588;-122.048;2023-05-16T06:16:05;20.50;74.30
49222;DHT22;35047;37.588;-122.048;2023-05-16T06:18:31;20.50;74.30
49222;DHT22;35047;37.588;-122.048;2023-05-16T06:20:58;20.50;74.30
49222;DHT22;35047;37.588;-122.048;2023-05-16T06:23:25;20.40;74.50
49222;DHT22;35047;37.588;-122.048;2023-05-16T06:25:52;20.50;74.60
49222;DHT22;35047;37.588;-122.048;2023-05-16T06:28:18;20.40;74.60
49222;DHT22;35047;37.588;-122.048;2023-05-16T06:30:45;20.30;74.50
49222;DHT22;35047;37.588;-122.048;2023-05-16T06:33:14;20.20;74.90
49222;DHT22;35047;37.588;-122.048;2023-05-16T06:35:40;20.30;74.30
49222;DHT22;35047;37.588;-122.048;2023-05-16T06:38:08;20.20;75.00
49222;DHT22;35047;37.588;-122.048;2023-05-16T06:40:34;20.20;75.20
49222;DHT22;35047;37.588;-122.048;2023-05-16T06:43:01;20.10;75.10
49222;DHT22;35047;37.588;-122.048;2023-05-16T06:45:27;20.20;75.20
49222;DHT22;35047;37.588;-122.048;2023-05-16T06:47:54;20.10;75.60
49222;DHT22;35047;37.588;-122.048;2023-05-16T06:50:22;20.20;75.50
49222;DHT22;35047;37.588;-122.048;2023-05-16T06:52:48;20.20;75.40
49222;DHT22;35047;37.588;-122.048;2023-05-16T06:55:15;20.10;75.50
49222;DHT22;35047;37.588;-122.048;2023-05-16T06:57:42;20.00;75.70
49222;DHT22;35047;37.588;-122.048;2023-05-16T07:00:08;20.20;75.70
49222;DHT22;35047;37.588;-122.048;2023-05-16T07:02:35;20.10;75.60
49222;DHT22;35047;37.588;-122.048;2023-05-16T07:05:01;20.00;75.40
49222;DHT22;35047;37.588;-122.048;2023-05-16T07:07:28;20.00;75.60
49222;DHT22;35047;37.588;-122.048;2023-05-16T07:09:55;20.00;75.90
49222;DHT22;35047;37.588;-122.048;2023-05-16T07:12:22;20.00;76.10
49222;DHT22;35047;37.588;-122.048;2023-05-16T07:14:48;19.90;76.10
49222;DHT22;35047;37.588;-122.048;2023-05-16T07:17:15;19.90;76.50
49222;DHT22;35047;37.588;-122.048;2023-05-16T07:19:41;19.90;76.60
49222;DHT22;35047;37.588;-122.048;2023-05-16T07:22:08;19.80;76.60
49222;DHT22;35047;37.588;-122.048;2023-05-16T07:24:34;19.80;76.60
49222;DHT22;35047;37.588;-122.048;2023-05-16T07:27:01;19.70;76.60
49222;DHT22;35047;37.588;-122.048;2023-05-16T07:29:27;19.70;77.10
49222;DHT22;35047;37.588;-122.048;2023-05-16T07:31:55;19.70;77.10
49222;DHT22;35047;37.588;-122.048;2023-05-16T07:34:22;19.70;77.20
49222;DHT22;35047;37.588;-122.048;2023-05-16T07:36:48;19.60;77.20
49222;DHT22;35047;37.588;-122.048;2023-05-16T07:39:14;19.70;77.40
49222;DHT22;35047;37.588;-122.048;2023-05-16T07:41:41;19.60;77.30
49222;DHT22;35047;37.588;-122.048;2023-05-16T07:44:08;19.70;77.80
49222;DHT22;35047;37.588;-122.048;2023-05-16T07:46:34;19.60;77.70
49222;DHT22;35047;37.588;-122.048;2023-05-16T07:49:01;19.60;77.60
49222;DHT22;35047;37.588;-122.048;2023-05-16T07:51:27;19.60;77.90
49222;DHT22;35047;37.588;-122.048;2023-05-16T07:53:54;19.60;77.30
49222;DHT22;35047;37.588;-122.048;2023-05-16T07:56:20;19.60;77.80
49222;DHT22;35047;37.588;-122.048;2023-05-16T07:58:48;19.60;77.80
49222;DHT22;35047;37.588;-122.048;2023-05-16T08:01:16;19.60;77.80
49222;DHT22;35047;37.588;-122.048;2023-05-16T08:03:43;19.50;77.70
49222;DHT22;35047;37.588;-122.048;2023-05-16T08:06:09;19.50;78.10
49222;DHT22;35047;37.588;-122.048;2023-05-16T08:08:36;19.40;78.70
49222;DHT22;35047;37.588;-122.048;2023-05-16T08:11:03;19.40;78.90
49222;DHT22;35047;37.588;-122.048;2023-05-16T08:13:30;19.40;79.10
49222;DHT22;35047;37.588;-122.048;2023-05-16T08:15:56;19.40;79.50
49222;DHT22;35047;37.588;-122.048;2023-05-16T08:18:23;19.40;79.00
49222;DHT22;35047;37.588;-122.048;2023-05-16T08:20:49;19.40;80.10
49222;DHT22;35047;37.588;-122.048;2023-05-16T08:23:16;19.40;80.20
49222;DHT22;35047;37.588;-122.048;2023-05-16T08:25:43;19.50;80.40
49222;DHT22;35047;37.588;-122.048;2023-05-16T08:28:09;19.60;80.20
49222;DHT22;35047;37.588;-122.048;2023-05-16T08:30:35;19.70;79.80
49222;DHT22;35047;37.588;-122.048;2023-05-16T08:33:02;19.70;79.30
49222;DHT22;35047;37.588;-122.048;2023-05-16T08:35:30;19.70;79.40
49222;DHT22;35047;37.588;-122.048;2023-05-16T08:37:57;19.70;78.90
49222;DHT22;35047;37.588;-122.048;2023-05-16T08:40:25;19.60;79.20
49222;DHT22;35047;37.588;-122.048;2023-05-16T08:42:53;19.70;79.30
49222;DHT22;35047;37.588;-122.048;2023-05-16T08:45:21;19.70;79.70
49222;DHT22;35047;37.588;-122.048;2023-05-16T08:47:49;19.60;79.00
49222;DHT22;35047;37.588;-122.048;2023-05-16T08:50:19;19.70;79.70
49222;DHT22;35047;37.588;-122.048;2023-05-16T08:52:47;19.60;79.60
49222;DHT22;35047;37.588;-122.048;2023-05-16T08:55:19;19.70;79.20
49222;DHT22;35047;37.588;-122.048;2023-05-16T08:57:49;19.70;79.00
49222;DHT22;35047;37.588;-122.048;2023-05-16T09:00:19;19.70;79.20
49222;DHT22;35047;37.588;-122.048;2023-05-16T09:02:45;19.70;79.00
49222;DHT22;35047;37.588;-122.048;2023-05-16T09:05:14;19.60;78.90
49222;DHT22;35047;37.588;-122.048;2023-05-16T09:07:42;19.70;78.90
49222;DHT22;35047;37.588;-122.048;2023-05-16T09:10:09;19.60;79.10
49222;DHT22;35047;37.588;-122.048;2023-05-16T09:12:36;19.60;79.50
49222;DHT22;35047;37.588;-122.048;2023-05-16T09:15:04;19.60;79.70
49222;DHT22;35047;37.588;-122.048;2023-05-16T09:20:14;19.60;80.30
49222;DHT22;35047;37.588;-122.048;2023-05-16T09:22:56;19.70;79.20
49222;DHT22;35047;37.588;-122.048;2023-05-16T09:25:26;19.60;79.70
49222;DHT22;35047;37.588;-122.048;2023-05-16T09:27:53;19.60;79.30
49222;DHT22;35047;37.588;-122.048;2023-05-16T09:30:22;19.60;79.80
49222;DHT22;35047;37.588;-122.048;2023-05-16T09:32:51;19.60;80.20
49222;DHT22;35047;37.588;-122.048;2023-05-16T09:35:19;19.60;80.00
49222;DHT22;35047;37.588;-122.048;2023-05-16T09:37:47;19.70;79.60
49222;DHT22;35047;37.588;-122.048;2023-05-16T09:40:14;19.70;79.60
49222;DHT22;35047;37.588;-122.048;2023-05-16T09:42:42;19.70;79.30
49222;DHT22;35047;37.588;-122.048;2023-05-16T09:45:12;19.70;79.60
49222;DHT22;35047;37.588;-122.048;2023-05-16T09:47:39;19.70;79.20
49222;DHT22;35047;37.588;-122.048;2023-05-16T09:50:14;19.70;78.90
49222;DHT22;35047;37.588;-122.048;2023-05-16T09:52:43;19.60;79.40
49222;DHT22;35047;37.588;-122.048;2023-05-16T09:55:10;19.60;79.20
49222;DHT22;35047;37.588;-122.048;2023-05-16T09:57:37;19.60;78.80
49222;DHT22;35047;37.588;-122.048;2023-05-16T10:00:06;19.60;79.10
49222;DHT22;35047;37.588;-122.048;2023-05-16T10:02:37;19.60;79.40
49222;DHT22;35047;37.588;-122.048;2023-05-16T10:05:06;19.60;79.10
49222;DHT22;35047;37.588;-122.048;2023-05-16T10:07:33;19.60;79.80
49222;DHT22;35047;37.588;-122.048;2023-05-16T10:10:05;19.60;79.40
49222;DHT22;35047;37.588;-122.048;2023-05-16T10:12:36;19.60;79.50
49222;DHT22;35047;37.588;-122.048;2023-05-16T10:15:04;19.40;79.80
49222;DHT22;35047;37.588;-122.048;2023-05-16T10:17:36;19.40;79.60
49222;DHT22;35047;37.588;-122.048;2023-05-16T10:20:06;19.40;80.50
49222;DHT22;35047;37.588;-122.048;2023-05-16T10:22:34;19.50;80.40
49222;DHT22;35047;37.588;-122.048;2023-05-16T10:25:11;19.50;80.40
49222;DHT22;35047;37.588;-122.048;2023-05-16T10:27:42;19.50;80.00
49222;DHT22;35047;37.588;-122.048;2023-05-16T10:30:09;19.50;80.30
49222;DHT22;35047;37.588;-122.048;2023-05-16T10:32:36;19.40;80.30
49222;DHT22;35047;37.588;-122.048;2023-05-16T10:35:04;19.50;80.50
49222;DHT22;35047;37.588;-122.048;2023-05-16T10:37:31;19.50;80.90
49222;DHT22;35047;37.588;-122.048;2023-05-16T10:40:02;19.50;80.70
49222;DHT22;35047;37.588;-122.048;2023-05-16T10:42:33;19.70;80.90
49222;DHT22;35047;37.588;-122.048;2023-05-16T10:45:28;19.70;80.60
49222;DHT22;35047;37.588;-122.048;2023-05-16T10:48:02;19.60;79.80
49222;DHT22;35047;37.588;-122.048;2023-05-16T10:50:40;19.70;80.80
49222;DHT22;35047;37.588;-122.048;2023-05-16T10:53:18;19.70;80.60
49222;DHT22;35047;37.588;-122.048;2023-05-16T11:01:16;19.70;80.10
49222;DHT22;35047;37.588;-122.048;2023-05-16T11:06:28;19.70;80.30
49222;DHT22;35047;37.588;-122.048;2023-05-16T11:11:45;19.50;80.90
49222;DHT22;35047;37.588;-122.048;2023-05-16T11:17:05;19.50;81.70
49222;DHT22;35047;37.588;-122.048;2023-05-16T11:24:55;19.60;80.50
49222;DHT22;35047;37.588;-122.048;2023-05-16T11:30:22;19.70;81.00
49222;DHT22;35047;37.588;-122.048;2023-05-16T11:32:48;19.70;80.80
49222;DHT22;35047;37.588;-122.048;2023-05-16T11:35:16;19.70;81.00
49222;DHT22;35047;37.588;-122.048;2023-05-16T11:37:44;19.70;81.20
49222;DHT22;35047;37.588;-122.048;2023-05-16T11:40:13;19.60;80.90
49222;DHT22;35047;37.588;-122.048;2023-05-16T11:42:45;19.60;81.70
49222;DHT22;35047;37.588;-122.048;2023-05-16T11:45:17;19.70;81.40
49222;DHT22;35047;37.588;-122.048;2023-05-16T11:47:46;19.60;81.30
49222;DHT22;35047;37.588;-122.048;2023-05-16T11:50:18;19.60;80.90
49222;DHT22;35047;37.588;-122.048;2023-05-16T11:52:47;19.50;81.70
49222;DHT22;35047;37.588;-122.048;2023-05-16T11:55:15;19.70;81.40
49222;DHT22;35047;37.588;-122.048;2023-05-16T11:57:44;19.70;81.00
49222;DHT22;35047;37.588;-122.048;2023-05-16T12:02:37;19.60;81.70
49222;DHT22;35047;37.588;-122.048;2023-05-16T12:05:08;19.60;81.70
49222;DHT22;35047;37.588;-122.048;2023-05-16T12:07:36;19.70;81.60
49222;DHT22;35047;37.588;-122.048;2023-05-16T12:10:08;19.80;81.00
49222;DHT22;35047;37.588;-122.048;2023-05-16T12:12:36;19.70;80.80
49222;DHT22;35047;37.588;-122.048;2023-05-16T12:15:03;19.70;80.70
49222;DHT22;35047;37.588;-122.048;2023-05-16T12:17:35;19.60;81.40
49222;DHT22;35047;37.588;-122.048;2023-05-16T12:20:04;19.70;81.00
49222;DHT22;35047;37.588;-122.048;2023-05-16T12:22:39;19.80;81.20
49222;DHT22;35047;37.588;-122.048;2023-05-16T12:25:30;19.80;80.70
49222;DHT22;35047;37.588;-122.048;2023-05-16T12:27:58;19.80;80.60
49222;DHT22;35047;37.588;-122.048;2023-05-16T12:30:31;19.70;81.30
49222;DHT22;35047;37.588;-122.048;2023-05-16T12:32:59;19.80;81.10
49222;DHT22;35047;37.588;-122.048;2023-05-16T12:35:31;19.80;81.00
49222;DHT22;35047;37.588;-122.048;2023-05-16T12:37:59;19.70;80.90
49222;DHT22;35047;37.588;-122.048;2023-05-16T12:40:29;19.70;81.40
49222;DHT22;35047;37.588;-122.048;2023-05-16T12:42:56;19.70;81.50
49222;DHT22;35047;37.588;-122.048;2023-05-16T12:45:25;19.70;81.00
49222;DHT22;35047;37.588;-122.048;2023-05-16T12:47:53;19.80;81.00
49222;DHT22;35047;37.588;-122.048;2023-05-16T12:50:19;19.70;81.00
49222;DHT22;35047;37.588;-122.048;2023-05-16T12:52:50;19.90;81.10
49222;DHT22;35047;37.588;-122.048;2023-05-16T12:55:25;19.70;81.50
49222;DHT22;35047;37.588;-122.048;2023-05-16T12:57:54;19.80;81.10
49222;DHT22;35047;37.588;-122.048;2023-05-16T13:00:23;19.70;81.30
49222;DHT22;35047;37.588;-122.048;2023-05-16T13:02:49;19.70;81.70
49222;DHT22;35047;37.588;-122.048;2023-05-16T13:05:16;19.80;81.40
49222;DHT22;35047;37.588;-122.048;2023-05-16T13:07:43;19.80;81.00
49222;DHT22;35047;37.588;-122.048;2023-05-16T13:10:10;19.70;81.30
49222;DHT22;35047;37.588;-122.048;2023-05-16T13:12:37;19.70;81.50
49222;DHT22;35047;37.588;-122.048;2023-05-16T13:15:08;19.80;81.90
49222;DHT22;35047;37.588;-122.048;2023-05-16T13:17:36;19.60;80.80
49222;DHT22;35047;37.588;-122.048;2023-05-16T13:20:03;19.70;83.00
49222;DHT22;35047;37.588;-122.048;2023-05-16T13:22:41;19.80;81.80
49222;DHT22;35047;37.588;-122.048;2023-05-16T13:25:09;19.80;82.00
49222;DHT22;35047;37.588;-122.048;2023-05-16T13:27:35;19.80;82.00
49222;DHT22;35047;37.588;-122.048;2023-05-16T13:30:02;19.80;82.00
49222;DHT22;35047;37.588;-122.048;2023-05-16T13:32:32;19.80;82.00
49222;DHT22;35047;37.588;-122.048;2023-05-16T13:34:58;19.70;82.30
49222;DHT22;35047;37.588;-122.048;2023-05-16T13:37:25;19.70;82.00
49222;DHT22;35047;37.588;-122.048;2023-05-16T13:39:52;19.90;82.30
49222;DHT22;35047;37.588;-122.048;2023-05-16T13:42:22;19.90;81.90
49222;DHT22;35047;37.588;-122.048;2023-05-16T13:44:48;19.90;81.70
49222;DHT22;35047;37.588;-122.048;2023-05-16T13:47:15;19.90;81.90
49222;DHT22;35047;37.588;-122.048;2023-05-16T13:49:41;19.90;81.90
49222;DHT22;35047;37.588;-122.048;2023-05-16T13:52:08;19.70;82.20
49222;DHT22;35047;37.588;-122.048;2023-05-16T13:54:34;19.80;82.70
49222;DHT22;35047;37.588;-122.048;2023-05-16T13:57:01;19.70;82.40
49222;DHT22;35047;37.588;-122.048;2023-05-16T13:59:28;19.80;82.70
49222;DHT22;35047;37.588;-122.048;2023-05-16T14:01:55;19.80;81.90
49222;DHT22;35047;37.588;-122.048;2023-05-16T14:04:22;19.70;81.30
49222;DHT22;35047;37.588;-122.048;2023-05-16T14:06:48;19.80;82.00
49222;DHT22;35047;37.588;-122.048;2023-05-16T14:09:15;19.80;82.10
49222;DHT22;35047;37.588;-122.048;2023-05-16T14:11:41;19.80;82.20
49222;DHT22;35047;37.588;-122.048;2023-05-16T14:14:08;19.80;82.00
49222;DHT22;35047;37.588;-122.048;2023-05-16T14:16:34;19.80;82.30
49222;DHT22;35047;37.588;-122.048;2023-05-16T14:19:01;19.90;82.30
49222;DHT22;35047;37.588;-122.048;2023-05-16T14:21:27;20.00;82.00
49222;DHT22;35047;37.588;-122.048;2023-05-16T14:23:54;20.10;81.70
49222;DHT22;35047;37.588;-122.048;2023-05-16T14:26:20;20.00;81.60
49222;DHT22;35047;37.588;-122.048;2023-05-16T14:28:50;20.00;81.80
49222;DHT22;35047;37.588;-122.048;2023-05-16T14:31:17;20.10;81.70
49222;DHT22;35047;37.588;-122.048;2023-05-16T14:33:43;20.10;81.30
49222;DHT22;35047;37.588;-122.048;2023-05-16T14:36:10;20.20;81.20
49222;DHT22;35047;37.588;-122.048;2023-05-16T14:38:36;20.20;80.80
49222;DHT22;35047;37.588;-122.048;2023-05-16T14:41:03;20.20;80.90
49222;DHT22;35047;37.588;-122.048;2023-05-16T14:43:29;20.20;81.10
49222;DHT22;35047;37.588;-122.048;2023-05-16T14:45:56;20.20;81.10
49222;DHT22;35047;37.588;-122.048;2023-05-16T14:48:23;20.20;81.00
49222;DHT22;35047;37.588;-122.048;2023-05-16T14:50:49;20.20;80.90
49222;DHT22;35047;37.588;-122.048;2023-05-16T14:53:16;20.30;80.80
49222;DHT22;35047;37.588;-122.048;2023-05-16T14:55:43;20.30;80.40
49222;DHT22;35047;37.588;-122.048;2023-05-16T14:58:09;20.30;80.50
49222;DHT22;35047;37.588;-122.048;2023-05-16T15:00:36;20.30;80.90
49222;DHT22;35047;37.588;-122.048;2023-05-16T15:03:03;20.30;80.70
49222;DHT22;35047;37.588;-122.048;2023-05-16T15:05:29;20.30;80.80
49222;DHT22;35047;37.588;-122.048;2023-05-16T15:07:56;20.30;81.10
49222;DHT22;35047;37.588;-122.048;2023-05-16T15:10:22;20.40;80.90
49222;DHT22;35047;37.588;-122.048;2023-05-16T15:12:49;20.30;80.30
49222;DHT22;35047;37.588;-122.048;2023-05-16T15:15:15;20.40;81.30
49222;DHT22;35047;37.588;-122.048;2023-05-16T15:17:42;20.50;80.30
49222;DHT22;35047;37.588;-122.048;2023-05-16T15:20:09;20.50;80.70
49222;DHT22;35047;37.588;-122.048;2023-05-16T15:22:38;20.50;80.40
49222;DHT22;35047;37.588;-122.048;2023-05-16T15:25:06;20.50;80.30
49222;DHT22;35047;37.588;-122.048;2023-05-16T15:27:33;20.60;80.10
49222;DHT22;35047;37.588;-122.048;2023-05-16T15:30:00;20.60;80.00
49222;DHT22;35047;37.588;-122.048;2023-05-16T15:32:27;20.50;79.20
49222;DHT22;35047;37.588;-122.048;2023-05-16T15:34:53;20.60;80.20